sensor_id;sensor_type;location;lat;lon;timestamp;temperature;humidity
22442;DHT22;11388;54.456;9.752;2023-06-10T00:07:12;16.50;99.90
22442;DHT22;11388;54.456;9.752;2023-06-10T00:09:43;16.50;99.90
22442;DHT22;11388;54.456;9.752;2023-06-10T00:12:09;16.50;99.90
22442;DHT22;11388;54.456;9.752;2023-06-10T00:17:34;16.50;99.90
22442;DHT22;11388;54.456;9.752;2023-06-10T00:20:17;16.50;99.90
22442;DHT22;11388;54.456;9.752;2023-06-10T00:22:53;16.50;99.90
22442;DHT22;11388;54.456;9.752;2023-06-10T00:25:25;16.60;99.90
22442;DHT22;11388;54.456;9.752;2023-06-10T00:28:26;16.50;99.90
22442;DHT22;11388;54.456;9.752;2023-06-10T00:31:13;16.50;99.90
22442;DHT22;11388;54.456;9.752;2023-06-10T00:33:39;16.60;99.90
22442;DHT22;11388;54.456;9.752;2023-06-10T00:36:05;16.60;99.90
22442;DHT22;11388;54.456;9.752;2023-06-10T00:38:33;16.60;99.90
22442;DHT22;11388;54.456;9.752;2023-06-10T00:41:07;16.50;99.90
22442;DHT22;11388;54.456;9.752;2023-06-10T00:43:54;16.50;99.90
22442;DHT22;11388;54.456;9.752;2023-06-10T00:46:23;16.50;99.90
22442;DHT22;11388;54.456;9.752;2023-06-10T00:49:09;16.50;99.90
22442;DHT22;11388;54.456;9.752;2023-06-10T00:51:45;16.40;99.90
22442;DHT22;11388;54.456;9.752;2023-06-10T00:54:16;16.30;99.90
22442;DHT22;11388;54.456;9.752;2023-06-10T00:56:42;16.30;99.90
22442;DHT22;11388;54.456;9.752;2023-06-10T00:59:09;16.30;99.90
22442;DHT22;11388;54.456;9.752;2023-06-10T01:01:52;16.30;99.90
22442;DHT22;11388;54.456;9.752;2023-06-10T01:04:20;16.20;99.90
22442;DHT22;11388;54.456;9.752;2023-06-10T01:15:21;16.20;99.90
22442;DHT22;11388;54.456;9.752;2023-06-10T01:18:03;16.20;99.90
22442;DHT22;11388;54.456;9.752;2023-06-10T01:20:33;16.10;99.90
22442;DHT22;11388;54.456;9.752;2023-06-10T01:23:24;16.10;99.90
22442;DHT22;11388;54.456;9.752;2023-06-10T01:26:01;16.10;99.90
22442;DHT22;11388;54.456;9.752;2023-06-10T01:28:48;16.10;99.90
22442;DHT22;11388;54.456;9.752;2023-06-10T01:34:12;16.00;99.90
22442;DHT22;11388;54.456;9.752;2023-06-10T01:42:42;15.90;99.90
22442;DHT22;11388;54.456;9.752;2023-06-10T01:48:42;15.90;99.90
22442;DHT22;11388;54.456;9.752;2023-06-10T01:51:14;15.90;99.90
22442;DHT22;11388;54.456;9.752;2023-06-10T01:53:45;15.90;99.90
22442;DHT22;11388;54.456;9.752;2023-06-10T02:02:07;15.80;99.90
22442;DHT22;11388;54.456;9.752;2023-06-10T02:04:45;15.80;99.90
22442;DHT22;11388;54.456;9.752;2023-06-10T02:07:16;15.70;99.90
22442;DHT22;11388;54.456;9.752;2023-06-10T02:14:51;15.70;99.90
22442;DHT22;11388;54.456;9.752;2023-06-10T02:17:29;15.70;99.90
22442;DHT22;11388;54.456;9.752;2023-06-10T02:23:05;15.70;99.90
22442;DHT22;11388;54.456;9.752;2023-06-10T02:25:41;15.70;99.90
22442;DHT22;11388;54.456;9.752;2023-06-10T02:28:24;15.60;99.90
22442;DHT22;11388;54.456;9.752;2023-06-10T02:30:58;15.70;99.90
22442;DHT22;11388;54.456;9.752;2023-06-10T02:36:53;15.60;99.90
22442;DHT22;11388;54.456;9.752;2023-06-10T02:39:46;15.60;99.90
22442;DHT22;11388;54.456;9.752;2023-06-10T02:42:28;15.50;99.90
22442;DHT22;11388;54.456;9.752;2023-06-10T02:45:17;15.50;99.90
22442;DHT22;11388;54.456;9.752;2023-06-10T02:47:46;15.50;99.90
22442;DHT22;11388;54.456;9.752;2023-06-10T02:50:24;15.40;99.90
22442;DHT22;11388;54.456;9.752;2023-06-10T02:53:01;15.50;99.90
22442;DHT22;11388;54.456;9.752;2023-06-10T02:55:53;15.50;99.90
22442;DHT22;11388;54.456;9.752;2023-06-10T02:58:45;15.50;99.90
22442;DHT22;11388;54.456;9.752;2023-06-10T03:01:25;15.50;99.90
22442;DHT22;11388;54.456;9.752;2023-06-10T03:32:48;15.40;99.90
22442;DHT22;11388;54.456;9.752;2023-06-10T03:48:48;15.50;99.90
22442;DHT22;11388;54.456;9.752;2023-06-10T03:51:49;15.50;99.90
22442;DHT22;11388;54.456;9.752;2023-06-10T04:01:40;15.60;99.90
22442;DHT22;11388;54.456;9.752;2023-06-10T04:04:27;15.60;99.90
22442;DHT22;11388;54.456;9.752;2023-06-10T04:07:27;15.60;99.90
22442;DHT22;11388;54.456;9.752;2023-06-10T04:10:06;15.60;99.90
22442;DHT22;11388;54.456;9.752;2023-06-10T04:13:01;15.60;99.90
22442;DHT22;11388;54.456;9.752;2023-06-10T04:36:29;15.90;99.90
22442;DHT22;11388;54.456;9.752;2023-06-10T04:38:55;15.90;99.90
22442;DHT22;11388;54.456;9.752;2023-06-10T04:41:21;15.90;99.90
22442;DHT22;11388;54.456;9.752;2023-06-10T04:43:47;15.80;99.90
22442;DHT22;11388;54.456;9.752;2023-06-10T04:46:13;15.90;99.90
22442;DHT22;11388;54.456;9.752;2023-06-10T04:48:39;16.00;99.90
22442;DHT22;11388;54.456;9.752;2023-06-10T04:51:07;16.00;99.90
22442;DHT22;11388;54.456;9.752;2023-06-10T04:53:33;16.00;99.90
22442;DHT22;11388;54.456;9.752;2023-06-10T04:55:59;16.10;99.90
22442;DHT22;11388;54.456;9.752;2023-06-10T04:58:24;16.20;99.90
22442;DHT22;11388;54.456;9.752;2023-06-10T05:00:50;16.20;99.90
22442;DHT22;11388;54.456;9.752;2023-06-10T05:03:16;16.20;99.90
22442;DHT22;11388;54.456;9.752;2023-06-10T05:05:45;16.20;99.90
22442;DHT22;11388;54.456;9.752;2023-06-10T05:08:11;16.20;99.90
22442;DHT22;11388;54.456;9.752;2023-06-10T05:10:39;16.20;99.90
22442;DHT22;11388;54.456;9.752;2023-06-10T05:13:05;16.30;99.90
22442;DHT22;11388;54.456;9.752;2023-06-10T05:15:31;16.30;99.90
22442;DHT22;11388;54.456;9.752;2023-06-10T05:17:57;16.30;99.90
22442;DHT22;11388;54.456;9.752;2023-06-10T05:20:24;16.40;99.90
22442;DHT22;11388;54.456;9.752;2023-06-10T05:22:50;16.40;99.90
22442;DHT22;11388;54.456;9.752;2023-06-10T05:25:16;16.50;99.90
22442;DHT22;11388;54.456;9.752;2023-06-10T05:27:42;16.50;99.90
22442;DHT22;11388;54.456;9.752;2023-06-10T05:30:10;16.50;99.90
22442;DHT22;11388;54.456;9.752;2023-06-10T05:32:36;16.50;99.90
22442;DHT22;11388;54.456;9.752;2023-06-10T05:35:02;16.50;99.90
22442;DHT22;11388;54.456;9.752;2023-06-10T05:37:29;16.60;99.90
22442;DHT22;11388;54.456;9.752;2023-06-10T05:39:55;16.70;99.90
22442;DHT22;11388;54.456;9.752;2023-06-10T05:42:21;16.70;99.90
22442;DHT22;11388;54.456;9.752;2023-06-10T05:44:46;16.60;99.90
22442;DHT22;11388;54.456;9.752;2023-06-10T05:47:12;16.70;99.90
22442;DHT22;11388;54.456;9.752;2023-06-10T05:49:38;16.70;99.90
22442;DHT22;11388;54.456;9.752;2023-06-10T05:52:04;16.70;99.90
22442;DHT22;11388;54.456;9.752;2023-06-10T05:54:30;16.80;99.90
22442;DHT22;11388;54.456;9.752;2023-06-10T05:56:55;16.90;99.90
22442;DHT22;11388;54.456;9.752;2023-06-10T05:59:21;16.90;99.90
22442;DHT22;11388;54.456;9.752;2023-06-10T06:01:49;16.90;99.90
22442;DHT22;11388;54.456;9.752;2023-06-10T06:04:17;16.90;99.90
22442;DHT22;11388;54.456;9.752;2023-06-10T06:10:42;16.90;99.90
22442;DHT22;11388;54.456;9.752;2023-06-10T06:29:37;17.30;99.90
22442;DHT22;11388;54.456;9.752;2023-06-10T06:32:08;17.30;99.90
22442;DHT22;11388;54.456;9.752;2023-06-10T06:34:39;17.40;99.90
22442;DHT22;11388;54.456;9.752;2023-06-10T06:37:05;17.50;99.90
22442;DHT22;11388;54.456;9.752;2023-06-10T06:39:41;17.70;99.90
22442;DHT22;11388;54.456;9.752;2023-06-10T06:42:07;17.80;99.90
22442;DHT22;11388;54.456;9.752;2023-06-10T06:44:38;17.90;99.90
22442;DHT22;11388;54.456;9.752;2023-06-10T06:47:07;18.00;99.90
22442;DHT22;11388;54.456;9.752;2023-06-10T06:49:35;18.10;99.90
22442;DHT22;11388;54.456;9.752;2023-06-10T06:52:11;18.30;99.90
22442;DHT22;11388;54.456;9.752;2023-06-10T06:54:37;18.20;99.90
22442;DHT22;11388;54.456;9.752;2023-06-10T06:57:03;18.20;99.90
22442;DHT22;11388;54.456;9.752;2023-06-10T06:59:29;18.30;99.90
22442;DHT22;11388;54.456;9.752;2023-06-10T07:01:54;18.40;99.90
22442;DHT22;11388;54.456;9.752;2023-06-10T07:04:20;18.50;99.90
22442;DHT22;11388;54.456;9.752;2023-06-10T07:06:48;18.50;99.90
22442;DHT22;11388;54.456;9.752;2023-06-10T07:09:13;18.50;99.90
22442;DHT22;11388;54.456;9.752;2023-06-10T07:11:39;18.60;99.90
22442;DHT22;11388;54.456;9.752;2023-06-10T07:14:05;18.60;99.90
22442;DHT22;11388;54.456;9.752;2023-06-10T07:16:31;18.70;99.90
22442;DHT22;11388;54.456;9.752;2023-06-10T07:18:57;18.80;99.90
22442;DHT22;11388;54.456;9.752;2023-06-10T07:21:23;18.90;99.90
22442;DHT22;11388;54.456;9.752;2023-06-10T07:23:50;18.80;99.90
22442;DHT22;11388;54.456;9.752;2023-06-10T07:26:19;18.70;99.90
22442;DHT22;11388;54.456;9.752;2023-06-10T07:28:44;18.80;99.90
22442;DHT22;11388;54.456;9.752;2023-06-10T07:31:10;18.90;99.90
22442;DHT22;11388;54.456;9.752;2023-06-10T07:33:55;19.00;99.90
22442;DHT22;11388;54.456;9.752;2023-06-10T07:45:33;19.30;99.90
22442;DHT22;11388;54.456;9.752;2023-06-10T07:48:43;19.30;99.90
22442;DHT22;11388;54.456;9.752;2023-06-10T07:51:09;19.40;99.90
22442;DHT22;11388;54.456;9.752;2023-06-10T07:57:34;19.50;99.90
22442;DHT22;11388;54.456;9.752;2023-06-10T08:00:08;19.70;99.90
22442;DHT22;11388;54.456;9.752;2023-06-10T08:03:00;19.80;99.90
22442;DHT22;11388;54.456;9.752;2023-06-10T08:14:45;20.00;99.90
22442;DHT22;11388;54.456;9.752;2023-06-10T08:17:11;20.00;99.90
22442;DHT22;11388;54.456;9.752;2023-06-10T09:38:31;20.00;99.90
22442;DHT22;11388;54.456;9.752;2023-06-10T09:46:42;20.10;99.90
22442;DHT22;11388;54.456;9.752;2023-06-10T09:49:21;20.20;99.90
22442;DHT22;11388;54.456;9.752;2023-06-10T09:51:54;20.20;99.90
22442;DHT22;11388;54.456;9.752;2023-06-10T09:54:23;20.10;99.90
22442;DHT22;11388;54.456;9.752;2023-06-10T09:56:55;20.10;99.90
22442;DHT22;11388;54.456;9.752;2023-06-10T09:59:33;20.00;99.90
22442;DHT22;11388;54.456;9.752;2023-06-10T10:02:05;20.20;99.90
22442;DHT22;11388;54.456;9.752;2023-06-10T10:04:35;20.30;99.90
22442;DHT22;11388;54.456;9.752;2023-06-10T10:07:04;20.40;99.90
22442;DHT22;11388;54.456;9.752;2023-06-10T10:09:50;20.40;99.90
22442;DHT22;11388;54.456;9.752;2023-06-10T10:12:20;20.30;99.90
22442;DHT22;11388;54.456;9.752;2023-06-10T10:14:47;20.40;99.90
22442;DHT22;11388;54.456;9.752;2023-06-10T10:17:15;20.40;99.90
22442;DHT22;11388;54.456;9.752;2023-06-10T10:19:48;20.50;99.90
22442;DHT22;11388;54.456;9.752;2023-06-10T10:22:20;20.50;99.90
22442;DHT22;11388;54.456;9.752;2023-06-10T10:24:53;20.50;99.90
22442;DHT22;11388;54.456;9.752;2023-06-10T10:27:29;20.50;99.90
22442;DHT22;11388;54.456;9.752;2023-06-10T10:29:58;20.50;99.90
22442;DHT22;11388;54.456;9.752;2023-06-10T10:32:38;20.50;99.90
22442;DHT22;11388;54.456;9.752;2023-06-10T10:35:09;20.60;99.90
22442;DHT22;11388;54.456;9.752;2023-06-10T10:37:37;20.60;99.90
22442;DHT22;11388;54.456;9.752;2023-06-10T10:40:04;20.60;99.90
22442;DHT22;11388;54.456;9.752;2023-06-10T10:42:30;20.60;99.90
22442;DHT22;11388;54.456;9.752;2023-06-10T10:44:56;20.60;99.90
22442;DHT22;11388;54.456;9.752;2023-06-10T10:47:26;20.70;99.90
22442;DHT22;11388;54.456;9.752;2023-06-10T10:49:52;20.70;99.90
22442;DHT22;11388;54.456;9.752;2023-06-10T10:52:19;20.70;99.90
22442;DHT22;11388;54.456;9.752;2023-06-10T10:54:46;20.70;99.90
22442;DHT22;11388;54.456;9.752;2023-06-10T10:57:17;20.70;99.90
22442;DHT22;11388;54.456;9.752;2023-06-10T11:00:00;20.80;99.90
22442;DHT22;11388;54.456;9.752;2023-06-10T11:05:15;20.80;99.90
22442;DHT22;11388;54.456;9.752;2023-06-10T11:07:55;20.90;99.90
22442;DHT22;11388;54.456;9.752;2023-06-10T11:10:40;21.00;99.90
22442;DHT22;11388;54.456;9.752;2023-06-10T11:13:15;21.10;99.90
22442;DHT22;11388;54.456;9.752;2023-06-10T11:15:48;21.20;99.90
22442;DHT22;11388;54.456;9.752;2023-06-10T11:18:25;21.30;99.90
22442;DHT22;11388;54.456;9.752;2023-06-10T11:24:13;21.40;99.90
22442;DHT22;11388;54.456;9.752;2023-06-10T11:26:44;21.40;99.90
22442;DHT22;11388;54.456;9.752;2023-06-10T11:29:10;21.60;99.90
22442;DHT22;11388;54.456;9.752;2023-06-10T11:31:41;21.90;99.90
22442;DHT22;11388;54.456;9.752;2023-06-10T11:37:03;21.80;99.90
22442;DHT22;11388;54.456;9.752;2023-06-10T12:54:40;35.50;75.40
22442;DHT22;11388;54.456;9.752;2023-06-10T12:57:09;37.10;71.40
22442;DHT22;11388;54.456;9.752;2023-06-10T12:59:38;37.40;68.00
22442;DHT22;11388;54.456;9.752;2023-06-10T13:04:39;37.90;60.80
22442;DHT22;11388;54.456;9.752;2023-06-10T13:07:15;38.80;59.40
22442;DHT22;11388;54.456;9.752;2023-06-10T13:17:34;39.90;54.20
22442;DHT22;11388;54.456;9.752;2023-06-10T13:20:03;40.40;53.50
22442;DHT22;11388;54.456;9.752;2023-06-10T13:29:35;41.60;50.50
22442;DHT22;11388;54.456;9.752;2023-06-10T13:32:20;40.90;49.70
22442;DHT22;11388;54.456;9.752;2023-06-10T13:34:53;41.10;49.70
22442;DHT22;11388;54.456;9.752;2023-06-10T13:46:59;41.40;47.50
22442;DHT22;11388;54.456;9.752;2023-06-10T13:49:25;41.30;47.70
22442;DHT22;11388;54.456;9.752;2023-06-10T13:51:51;41.40;46.40
22442;DHT22;11388;54.456;9.752;2023-06-10T13:54:17;42.20;46.20
22442;DHT22;11388;54.456;9.752;2023-06-10T13:56:42;41.70;47.30
22442;DHT22;11388;54.456;9.752;2023-06-10T13:59:08;42.10;46.30
22442;DHT22;11388;54.456;9.752;2023-06-10T14:01:37;42.00;45.40
22442;DHT22;11388;54.456;9.752;2023-06-10T14:04:06;42.10;45.40
22442;DHT22;11388;54.456;9.752;2023-06-10T14:06:33;42.60;44.50
22442;DHT22;11388;54.456;9.752;2023-06-10T14:09:01;42.70;44.70
22442;DHT22;11388;54.456;9.752;2023-06-10T14:11:33;42.70;44.60
22442;DHT22;11388;54.456;9.752;2023-06-10T14:24:22;42.00;44.70
22442;DHT22;11388;54.456;9.752;2023-06-10T14:27:24;41.20;44.50
22442;DHT22;11388;54.456;9.752;2023-06-10T15:19:32;30.60;58.60
22442;DHT22;11388;54.456;9.752;2023-06-10T15:29:42;29.20;62.20
22442;DHT22;11388;54.456;9.752;2023-06-10T15:52:57;27.50;67.30
22442;DHT22;11388;54.456;9.752;2023-06-10T15:55:44;27.60;67.90
22442;DHT22;11388;54.456;9.752;2023-06-10T15:58:47;27.60;68.10
22442;DHT22;11388;54.456;9.752;2023-06-10T16:02:01;27.40;68.90
22442;DHT22;11388;54.456;9.752;2023-06-10T16:07:54;27.30;69.10
22442;DHT22;11388;54.456;9.752;2023-06-10T16:13:49;27.50;69.30
22442;DHT22;11388;54.456;9.752;2023-06-10T16:17:08;27.40;70.40
22442;DHT22;11388;54.456;9.752;2023-06-10T16:45:33;27.20;69.10
22442;DHT22;11388;54.456;9.752;2023-06-10T16:48:36;28.90;64.30
22442;DHT22;11388;54.456;9.752;2023-06-10T17:01:24;26.50;67.70
22442;DHT22;11388;54.456;9.752;2023-06-10T17:04:13;26.20;68.50
22442;DHT22;11388;54.456;9.752;2023-06-10T17:06:45;26.00;68.80
22442;DHT22;11388;54.456;9.752;2023-06-10T17:09:13;26.10;68.00
22442;DHT22;11388;54.456;9.752;2023-06-10T17:11:41;26.10;67.60
22442;DHT22;11388;54.456;9.752;2023-06-10T17:18:31;28.10;61.40
22442;DHT22;11388;54.456;9.752;2023-06-10T17:21:34;27.40;61.50
22442;DHT22;11388;54.456;9.752;2023-06-10T17:24:43;26.70;63.40
22442;DHT22;11388;54.456;9.752;2023-06-10T17:27:23;25.90;64.50
22442;DHT22;11388;54.456;9.752;2023-06-10T17:29:51;25.60;65.10
22442;DHT22;11388;54.456;9.752;2023-06-10T17:32:17;25.20;66.10
22442;DHT22;11388;54.456;9.752;2023-06-10T17:34:43;24.90;66.60
22442;DHT22;11388;54.456;9.752;2023-06-10T17:37:08;24.60;66.70
22442;DHT22;11388;54.456;9.752;2023-06-10T17:39:34;25.10;66.80
22442;DHT22;11388;54.456;9.752;2023-06-10T17:42:00;26.70;65.10
22442;DHT22;11388;54.456;9.752;2023-06-10T17:44:26;26.50;61.90
22442;DHT22;11388;54.456;9.752;2023-06-10T17:46:54;25.90;62.20
22442;DHT22;11388;54.456;9.752;2023-06-10T17:49:23;25.10;64.00
22442;DHT22;11388;54.456;9.752;2023-06-10T17:51:52;24.70;66.70
22442;DHT22;11388;54.456;9.752;2023-06-10T17:54:18;24.40;66.90
22442;DHT22;11388;54.456;9.752;2023-06-10T17:56:45;24.20;67.70
22442;DHT22;11388;54.456;9.752;2023-06-10T17:59:11;23.80;68.60
22442;DHT22;11388;54.456;9.752;2023-06-10T18:01:37;23.70;69.20
22442;DHT22;11388;54.456;9.752;2023-06-10T18:04:03;23.70;70.00
22442;DHT22;11388;54.456;9.752;2023-06-10T18:06:33;24.10;70.00
22442;DHT22;11388;54.456;9.752;2023-06-10T18:08:58;24.80;67.40
22442;DHT22;11388;54.456;9.752;2023-06-10T18:11:24;24.10;67.30
22442;DHT22;11388;54.456;9.752;2023-06-10T18:13:51;23.70;68.80
22442;DHT22;11388;54.456;9.752;2023-06-10T18:16:17;23.10;69.80
22442;DHT22;11388;54.456;9.752;2023-06-10T18:18:43;22.70;70.90
22442;DHT22;11388;54.456;9.752;2023-06-10T18:21:10;22.50;70.90
22442;DHT22;11388;54.456;9.752;2023-06-10T18:23:36;22.40;71.50
22442;DHT22;11388;54.456;9.752;2023-06-10T18:26:05;22.20;72.30
22442;DHT22;11388;54.456;9.752;2023-06-10T18:28:30;22.00;73.30
22442;DHT22;11388;54.456;9.752;2023-06-10T18:30:57;21.70;74.10
22442;DHT22;11388;54.456;9.752;2023-06-10T18:33:23;21.60;75.50
22442;DHT22;11388;54.456;9.752;2023-06-10T18:35:49;21.50;75.40
22442;DHT22;11388;54.456;9.752;2023-06-10T18:38:15;21.30;76.10
22442;DHT22;11388;54.456;9.752;2023-06-10T18:40:41;20.90;77.40
22442;DHT22;11388;54.456;9.752;2023-06-10T18:43:06;20.90;78.70
22442;DHT22;11388;54.456;9.752;2023-06-10T18:45:32;20.80;80.00
22442;DHT22;11388;54.456;9.752;2023-06-10T18:47:58;20.70;80.30
22442;DHT22;11388;54.456;9.752;2023-06-10T18:50:24;20.50;81.90
22442;DHT22;11388;54.456;9.752;2023-06-10T18:52:50;20.40;83.30
22442;DHT22;11388;54.456;9.752;2023-06-10T18:55:21;20.30;85.10
22442;DHT22;11388;54.456;9.752;2023-06-10T18:57:50;20.30;87.50
22442;DHT22;11388;54.456;9.752;2023-06-10T19:00:16;20.20;88.30
22442;DHT22;11388;54.456;9.752;2023-06-10T19:02:42;20.00;90.00
22442;DHT22;11388;54.456;9.752;2023-06-10T19:05:08;19.90;90.90
22442;DHT22;11388;54.456;9.752;2023-06-10T19:07:35;19.90;91.90
22442;DHT22;11388;54.456;9.752;2023-06-10T19:10:01;19.90;93.30
22442;DHT22;11388;54.456;9.752;2023-06-10T19:12:27;19.80;94.00
22442;DHT22;11388;54.456;9.752;2023-06-10T19:14:56;19.70;95.40
22442;DHT22;11388;54.456;9.752;2023-06-10T19:17:22;19.70;96.40
22442;DHT22;11388;54.456;9.752;2023-06-10T19:19:47;19.60;97.40
22442;DHT22;11388;54.456;9.752;2023-06-10T19:22:13;19.50;98.90
22442;DHT22;11388;54.456;9.752;2023-06-10T19:24:42;19.40;99.40
22442;DHT22;11388;54.456;9.752;2023-06-10T19:27:09;19.40;99.60
22442;DHT22;11388;54.456;9.752;2023-06-10T19:29:36;19.40;99.70
22442;DHT22;11388;54.456;9.752;2023-06-10T19:32:02;19.30;99.90
22442;DHT22;11388;54.456;9.752;2023-06-10T19:34:30;19.20;99.90
22442;DHT22;11388;54.456;9.752;2023-06-10T19:37:05;19.20;99.90
22442;DHT22;11388;54.456;9.752;2023-06-10T19:39:31;19.10;99.90
22442;DHT22;11388;54.456;9.752;2023-06-10T19:41:56;19.00;99.90
22442;DHT22;11388;54.456;9.752;2023-06-10T19:44:22;19.00;99.90
22442;DHT22;11388;54.456;9.752;2023-06-10T19:46:54;18.90;99.90
22442;DHT22;11388;54.456;9.752;2023-06-10T19:49:20;18.80;99.90
22442;DHT22;11388;54.456;9.752;2023-06-10T19:51:45;18.80;99.90
22442;DHT22;11388;54.456;9.752;2023-06-10T19:54:13;18.70;99.90
22442;DHT22;11388;54.456;9.752;2023-06-10T19:56:39;18.70;99.90
22442;DHT22;11388;54.456;9.752;2023-06-10T19:59:05;18.60;99.90
22442;DHT22;11388;54.456;9.752;2023-06-10T20:01:31;18.50;99.90
22442;DHT22;11388;54.456;9.752;2023-06-10T20:03:56;18.40;99.90
22442;DHT22;11388;54.456;9.752;2023-06-10T20:06:22;18.40;99.90
22442;DHT22;11388;54.456;9.752;2023-06-10T20:08:48;18.50;99.90
22442;DHT22;11388;54.456;9.752;2023-06-10T20:11:14;18.40;99.90
22442;DHT22;11388;54.456;9.752;2023-06-10T20:13:41;18.40;99.90
22442;DHT22;11388;54.456;9.752;2023-06-10T20:16:07;18.40;99.90
22442;DHT22;11388;54.456;9.752;2023-06-10T20:18:35;18.40;99.90
22442;DHT22;11388;54.456;9.752;2023-06-10T20:21:02;18.30;99.90
22442;DHT22;11388;54.456;9.752;2023-06-10T20:23:28;18.30;99.90
22442;DHT22;11388;54.456;9.752;2023-06-10T20:25:54;18.30;99.90
22442;DHT22;11388;54.456;9.752;2023-06-10T20:28:22;18.30;99.90
22442;DHT22;11388;54.456;9.752;2023-06-10T20:30:48;18.30;99.90
22442;DHT22;11388;54.456;9.752;2023-06-10T20:33:14;18.20;99.90
22442;DHT22;11388;54.456;9.752;2023-06-10T20:35:39;18.10;99.90
22442;DHT22;11388;54.456;9.752;2023-06-10T20:38:05;18.10;99.90
22442;DHT22;11388;54.456;9.752;2023-06-10T20:40:33;18.10;99.90
22442;DHT22;11388;54.456;9.752;2023-06-10T20:42:59;18.10;99.90
22442;DHT22;11388;54.456;9.752;2023-06-10T20:45:25;18.00;99.90
22442;DHT22;11388;54.456;9.752;2023-06-10T20:47:50;18.00;99.90
22442;DHT22;11388;54.456;9.752;2023-06-10T20:50:16;17.90;99.90
22442;DHT22;11388;54.456;9.752;2023-06-10T20:52:42;17.90;99.90
22442;DHT22;11388;54.456;9.752;2023-06-10T20:55:08;17.90;99.90
22442;DHT22;11388;54.456;9.752;2023-06-10T20:57:34;17.90;99.90
22442;DHT22;11388;54.456;9.752;2023-06-10T20:59:59;17.90;99.90
22442;DHT22;11388;54.456;9.752;2023-06-10T21:02:25;17.90;99.90
22442;DHT22;11388;54.456;9.752;2023-06-10T21:04:51;17.80;99.90
22442;DHT22;11388;54.456;9.752;2023-06-10T21:07:17;17.70;99.90
22442;DHT22;11388;54.456;9.752;2023-06-10T21:09:42;17.70;99.90
22442;DHT22;11388;54.456;9.752;2023-06-10T21:12:08;17.70;99.90
22442;DHT22;11388;54.456;9.752;2023-06-10T21:14:34;17.70;99.90
22442;DHT22;11388;54.456;9.752;2023-06-10T21:17:00;17.60;99.90
22442;DHT22;11388;54.456;9.752;2023-06-10T21:19:26;17.50;99.90
22442;DHT22;11388;54.456;9.752;2023-06-10T21:21:51;17.50;99.90
22442;DHT22;11388;54.456;9.752;2023-06-10T21:24:17;17.50;99.90
22442;DHT22;11388;54.456;9.752;2023-06-10T21:26:43;17.50;99.90
22442;DHT22;11388;54.456;9.752;2023-06-10T21:29:08;17.60;99.90
22442;DHT22;11388;54.456;9.752;2023-06-10T21:31:34;17.50;99.90
22442;DHT22;11388;54.456;9.752;2023-06-10T21:34:00;17.50;99.90
22442;DHT22;11388;54.456;9.752;2023-06-10T21:36:25;17.40;99.90
22442;DHT22;11388;54.456;9.752;2023-06-10T21:38:51;17.40;99.90
22442;DHT22;11388;54.456;9.752;2023-06-10T21:41:17;17.40;99.90
22442;DHT22;11388;54.456;9.752;2023-06-10T21:44:10;17.40;99.90
22442;DHT22;11388;54.456;9.752;2023-06-10T21:46:36;17.40;99.90
22442;DHT22;11388;54.456;9.752;2023-06-10T21:49:02;17.40;99.90
22442;DHT22;11388;54.456;9.752;2023-06-10T21:51:29;17.40;99.90
22442;DHT22;11388;54.456;9.752;2023-06-10T21:53:54;17.40;99.90
22442;DHT22;11388;54.456;9.752;2023-06-10T21:56:20;17.30;99.90
22442;DHT22;11388;54.456;9.752;2023-06-10T21:58:46;17.30;99.90
22442;DHT22;11388;54.456;9.752;2023-06-10T22:01:16;17.30;99.90
22442;DHT22;11388;54.456;9.752;2023-06-10T22:03:51;17.30;99.90
22442;DHT22;11388;54.456;9.752;2023-06-10T22:06:17;17.30;99.90
22442;DHT22;11388;54.456;9.752;2023-06-10T22:08:42;17.30;99.90
22442;DHT22;11388;54.456;9.752;2023-06-10T22:11:08;17.30;99.90
22442;DHT22;11388;54.456;9.752;2023-06-10T22:13:34;17.30;99.90
22442;DHT22;11388;54.456;9.752;2023-06-10T22:16:00;17.30;99.90
22442;DHT22;11388;54.456;9.752;2023-06-10T22:18:26;17.30;99.90
22442;DHT22;11388;54.456;9.752;2023-06-10T22:20:51;17.30;99.90
22442;DHT22;11388;54.456;9.752;2023-06-10T22:23:21;17.30;99.90
22442;DHT22;11388;54.456;9.752;2023-06-10T22:25:47;17.30;99.90
22442;DHT22;11388;54.456;9.752;2023-06-10T22:28:13;17.30;99.90
22442;DHT22;11388;54.456;9.752;2023-06-10T22:30:39;17.30;99.90
22442;DHT22;11388;54.456;9.752;2023-06-10T22:33:05;17.20;99.90
22442;DHT22;11388;54.456;9.752;2023-06-10T22:35:30;17.20;99.90
22442;DHT22;11388;54.456;9.752;2023-06-10T22:37:56;17.10;99.90
22442;DHT22;11388;54.456;9.752;2023-06-10T22:40:22;17.10;99.90
22442;DHT22;11388;54.456;9.752;2023-06-10T22:42:48;17.00;99.90
22442;DHT22;11388;54.456;9.752;2023-06-10T22:45:13;17.00;99.90
22442;DHT22;11388;54.456;9.752;2023-06-10T22:47:39;17.00;99.90
22442;DHT22;11388;54.456;9.752;2023-06-10T22:50:05;17.00;99.90
22442;DHT22;11388;54.456;9.752;2023-06-10T22:52:31;16.90;99.90
22442;DHT22;11388;54.456;9.752;2023-06-10T22:54:57;17.00;99.90
22442;DHT22;11388;54.456;9.752;2023-06-10T22:57:22;17.00;99.90
22442;DHT22;11388;54.456;9.752;2023-06-10T22:59:48;17.00;99.90
22442;DHT22;11388;54.456;9.752;2023-06-10T23:02:14;16.90;99.90
22442;DHT22;11388;54.456;9.752;2023-06-10T23:04:39;16.80;99.90
22442;DHT22;11388;54.456;9.752;2023-06-10T23:07:05;16.90;99.90
22442;DHT22;11388;54.456;9.752;2023-06-10T23:09:31;16.90;99.90
22442;DHT22;11388;54.456;9.752;2023-06-10T23:11:57;16.90;99.90
22442;DHT22;11388;54.456;9.752;2023-06-10T23:14:22;16.90;99.90
22442;DHT22;11388;54.456;9.752;2023-06-10T23:16:49;17.00;99.90
22442;DHT22;11388;54.456;9.752;2023-06-10T23:19:16;16.90;99.90
22442;DHT22;11388;54.456;9.752;2023-06-10T23:21:52;16.80;99.90
22442;DHT22;11388;54.456;9.752;2023-06-10T23:24:26;16.80;99.90
22442;DHT22;11388;54.456;9.752;2023-06-10T23:27:01;16.80;99.90
22442;DHT22;11388;54.456;9.752;2023-06-10T23:29:27;16.80;99.90
22442;DHT22;11388;54.456;9.752;2023-06-10T23:31:54;16.80;99.90
22442;DHT22;11388;54.456;9.752;2023-06-10T23:34:20;16.70;99.90
22442;DHT22;11388;54.456;9.752;2023-06-10T23:36:47;16.70;99.90
22442;DHT22;11388;54.456;9.752;2023-06-10T23:39:13;16.70;99.90
22442;DHT22;11388;54.456;9.752;2023-06-10T23:41:40;16.70;99.90
22442;DHT22;11388;54.456;9.752;2023-06-10T23:44:06;16.70;99.90
22442;DHT22;11388;54.456;9.752;2023-06-10T23:46:35;16.70;99.90
22442;DHT22;11388;54.456;9.752;2023-06-10T23:49:01;16.70;99.90
22442;DHT22;11388;54.456;9.752;2023-06-10T23:51:30;16.70;99.90
22442;DHT22;11388;54.456;9.752;2023-06-10T23:53:56;16.70;99.90
22442;DHT22;11388;54.456;9.752;2023-06-10T23:56:22;16.60;99.90
22442;DHT22;11388;54.456;9.752;2023-06-10T23:58:50;16.60;99.90
